Time,TemperatureF,DewpointF,PressureIn,WindDirection,WindDirectionDegrees,WindSpeedMPH,WindSpeedGustMPH,Humidity,HourlyPrecipIn,Conditions,Clouds,dailyrainin,SolarRadiationWatts/m^2,SoftwareType,DateUTC
2013-10-19 00:01:00,51.1,49.1,29.98,WSW,252,0.0,0.0,93,0.00,,,0.00,0,HR-IXPWINDi_r2_v1.2.,2013-10-19 04:01:00,
2013-10-19 00:06:00,51.0,49.0,29.98,WSW,252,0.0,0.0,93,0.00,,,0.00,0,HR-IXPWINDi_r2_v1.2.,2013-10-19 04:06:00,
2013-10-19 00:11:00,51.0,49.0,29.97,WSW,252,0.0,0.0,93,0.00,,,0.00,0,HR-IXPWINDi_r2_v1.2.,2013-10-19 04:11:00,
2013-10-19 00:16:00,51.1,49.1,29.97,WSW,252,0.0,1.0,93,0.00,,,0.00,0,HR-IXPWINDi_r2_v1.2.,2013-10-19 04:16:00,
2013-10-19 00:21:00,51.3,49.3,29.98,WSW,252,0.0,1.0,93,0.00,,,0.00,0,HR-IXPWINDi_r2_v1.2.,2013-10-19 04:21:00,
2013-10-19 00:26:00,50.9,48.9,29.98,WSW,252,0.0,0.0,93,0.00,,,0.00,0,HR-IXPWINDi_r2_v1.2.,2013-10-19 04:26:00,
2013-10-19 00:31:00,50.6,48.6,29.98,WSW,252,0.0,0.0,93,0.00,,,0.00,0,HR-IXPWINDi_r2_v1.2.,2013-10-19 04:31:00,
2013-10-19 00:37:00,50.4,48.7,29.97,WSW,252,0.0,0.0,94,0.00,,,0.00,0,HR-IXPWINDi_r2_v1.2.,2013-10-19 04:37:00,
2013-10-19 00:42:00,50.8,49.1,29.97,WSW,252,0.0,0.0,94,0.00,,,0.00,0,HR-IXPWINDi_r2_v1.2.,2013-10-19 04:42:00,
2013-10-19 00:47:00,50.8,49.1,29.97,WSW,252,0.0,0.0,94,0.00,,,0.00,0,HR-IXPWINDi_r2_v1.2.,2013-10-19 04:47:00,
2013-10-19 00:52:00,50.5,48.5,29.98,WSW,252,0.0,1.0,93,0.00,,,0.00,0,HR-IXPWINDi_r2_v1.2.,2013-10-19 04:52:00,
2013-10-19 00:57:00,50.3,48.6,29.97,WSW,252,0.0,1.0,94,0.00,,,0.00,0,HR-IXPWINDi_r2_v1.2.,2013-10-19 04:57:00,
2013-10-19 01:02:00,50.4,48.7,29.97,WSW,252,0.0,0.0,94,0.00,,,0.00,0,HR-IXPWINDi_r2_v1.2.,2013-10-19 05:02:00,
2013-10-19 01:08:00,50.5,48.8,29.97,WSW,252,0.0,0.0,94,0.00,,,0.00,0,HR-IXPWINDi_r2_v1.2.,2013-10-19 05:08:00,
2013-10-19 01:13:00,50.3,48.6,29.97,WSW,252,0.0,0.0,94,0.00,,,0.00,0,HR-IXPWINDi_r2_v1.2.,2013-10-19 05:13:00,
2013-10-19 01:18:00,50.4,48.7,29.96,WSW,252,0.0,0.0,94,0.00,,,0.00,0,HR-IXPWINDi_r2_v1.2.,2013-10-19 05:18:00,
2013-10-19 01:23:00,50.4,48.7,29.96,WSW,252,0.0,2.0,94,0.00,,,0.00,0,HR-IXPWINDi_r2_v1.2.,2013-10-19 05:23:00,
2013-10-19 01:28:00,50.6,49.2,29.96,WSW,252,0.0,2.0,95,0.00,,,0.00,0,HR-IXPWINDi_r2_v1.2.,2013-10-19 05:28:00,
2013-10-19 01:34:00,50.7,49.3,29.96,WSW,252,0.0,0.0,95,0.00,,,0.00,0,HR-IXPWINDi_r2_v1.2.,2013-10-19 05:34:00,
2013-10-19 01:39:00,50.8,49.4,29.97,WSW,252,0.0,0.0,95,0.00,,,0.00,0,HR-IXPWINDi_r2_v1.2.,2013-10-19 05:39:00,
2013-10-19 01:44:00,50.5,48.8,29.96,WSW,252,1.0,1.0,94,0.00,,,0.00,0,HR-IXPWINDi_r2_v1.2.,2013-10-19 05:44:00,
2013-10-19 01:49:00,50.5,49.1,29.96,WSW,252,0.0,1.0,95,0.00,,,0.00,0,HR-IXPWINDi_r2_v1.2.,2013-10-19 05:49:00,
2013-10-19 01:54:00,50.5,48.8,29.95,WSW,252,0.0,1.0,94,0.00,,,0.00,0,HR-IXPWINDi_r2_v1.2.,2013-10-19 05:54:00,
2013-10-19 02:00:00,50.0,48.3,29.95,WSW,252,0.0,2.0,94,0.00,,,0.00,0,HR-IXPWINDi_r2_v1.2.,2013-10-19 06:00:00,
2013-10-19 02:05:00,50.1,48.7,29.95,WSW,252,0.0,2.0,95,0.00,,,0.00,0,HR-IXPWINDi_r2_v1.2.,2013-10-19 06:05:00,
2013-10-19 02:10:00,50.2,48.8,29.96,WSW,252,0.0,2.0,95,0.00,,,0.00,0,HR-IXPWINDi_r2_v1.2.,2013-10-19 06:10:00,
2013-10-19 02:15:00,50.3,48.9,29.96,WSW,252,0.0,0.0,95,0.00,,,0.00,0,HR-IXPWINDi_r2_v1.2.,2013-10-19 06:15:00,
2013-10-19 02:20:00,50.2,48.8,29.96,WSW,252,0.0,0.0,95,0.00,,,0.00,0,HR-IXPWINDi_r2_v1.2.,2013-10-19 06:20:00,
2013-10-19 02:25:00,50.5,49.1,29.96,WSW,252,0.0,1.0,95,0.00,,,0.00,0,HR-IXPWINDi_r2_v1.2.,2013-10-19 06:25:00,
2013-10-19 02:30:00,50.1,48.7,29.96,WSW,252,0.0,3.0,95,0.00,,,0.00,0,HR-IXPWINDi_r2_v1.2.,2013-10-19 06:30:00,
2013-10-19 02:35:00,49.8,48.4,29.95,WSW,252,0.0,3.0,95,0.00,,,0.00,0,HR-IXPWINDi_r2_v1.2.,2013-10-19 06:35:00,
2013-10-19 02:41:00,50.0,48.6,29.96,WSW,252,0.0,1.0,95,0.00,,,0.00,0,HR-IXPWINDi_r2_v1.2.,2013-10-19 06:41:00,
2013-10-19 02:46:00,50.1,48.7,29.96,WSW,252,1.0,1.0,95,0.00,,,0.00,0,HR-IXPWINDi_r2_v1.2.,2013-10-19 06:46:00,
2013-10-19 02:51:00,50.3,48.9,29.95,WSW,252,0.0,3.0,95,0.00,,,0.00,0,HR-IXPWINDi_r2_v1.2.,2013-10-19 06:51:00,
2013-10-19 02:56:00,50.3,48.9,29.94,WSW,252,0.0,3.0,95,0.00,,,0.00,0,HR-IXPWINDi_r2_v1.2.,2013-10-19 06:56:00,
2013-10-19 03:02:00,50.2,48.8,29.93,WSW,252,0.0,1.0,95,0.00,,,0.00,0,HR-IXPWINDi_r2_v1.2.,2013-10-19 07:02:00,
2013-10-19 03:07:00,50.3,48.9,29.94,WSW,252,0.0,1.0,95,0.00,,,0.00,0,HR-IXPWINDi_r2_v1.2.,2013-10-19 07:07:00,
2013-10-19 03:12:00,50.3,48.9,29.94,WSW,252,0.0,0.0,95,0.00,,,0.00,0,HR-IXPWINDi_r2_v1.2.,2013-10-19 07:12:00,
2013-10-19 03:17:00,50.3,48.9,29.94,WSW,252,0.0,0.0,95,0.00,,,0.00,0,HR-IXPWINDi_r2_v1.2.,2013-10-19 07:17:00,
2013-10-19 03:22:00,50.3,48.9,29.94,WSW,252,0.0,0.0,95,0.00,,,0.00,0,HR-IXPWINDi_r2_v1.2.,2013-10-19 07:22:00,
2013-10-19 03:27:00,50.5,49.1,29.94,WSW,252,1.0,3.0,95,0.00,,,0.00,0,HR-IXPWINDi_r2_v1.2.,2013-10-19 07:27:00,
2013-10-19 03:33:00,50.6,49.2,29.93,WSW,252,0.0,3.0,95,0.00,,,0.00,0,HR-IXPWINDi_r2_v1.2.,2013-10-19 07:33:00,
2013-10-19 03:38:00,50.5,49.1,29.93,WSW,252,0.0,2.0,95,0.00,,,0.00,0,HR-IXPWINDi_r2_v1.2.,2013-10-19 07:38:00,
2013-10-19 03:43:00,50.4,49.0,29.93,WSW,252,2.0,3.0,95,0.00,,,0.00,0,HR-IXPWINDi_r2_v1.2.,2013-10-19 07:43:00,
2013-10-19 03:48:00,50.4,49.0,29.93,WSW,252,0.0,3.0,95,0.00,,,0.00,0,HR-IXPWINDi_r2_v1.2.,2013-10-19 07:48:00,
2013-10-19 03:53:00,50.4,49.0,29.93,WSW,252,0.0,2.0,95,0.00,,,0.00,0,HR-IXPWINDi_r2_v1.2.,2013-10-19 07:53:00,
2013-10-19 03:59:00,50.3,48.9,29.93,WSW,252,0.0,2.0,95,0.00,,,0.00,0,HR-IXPWINDi_r2_v1.2.,2013-10-19 07:59:00,
2013-10-19 04:04:00,50.3,48.9,29.93,WSW,252,0.0,2.0,95,0.00,,,0.00,0,HR-IXPWINDi_r2_v1.2.,2013-10-19 08:04:00,
2013-10-19 04:09:00,50.3,48.9,29.93,WSW,252,0.0,3.0,95,0.00,,,0.00,0,HR-IXPWINDi_r2_v1.2.,2013-10-19 08:09:00,
2013-10-19 04:14:00,50.4,49.0,29.93,WSW,252,0.0,3.0,95,0.00,,,0.00,0,HR-IXPWINDi_r2_v1.2.,2013-10-19 08:14:00,
2013-10-19 04:20:00,50.5,49.1,29.93,WSW,252,0.0,1.0,95,0.00,,,0.00,0,HR-IXPWINDi_r2_v1.2.,2013-10-19 08:20:00,
2013-10-19 04:25:00,50.4,49.0,29.93,WSW,252,0.0,1.0,95,0.00,,,0.00,0,HR-IXPWINDi_r2_v1.2.,2013-10-19 08:25:00,
2013-10-19 04:30:00,50.5,49.1,29.94,WSW,252,0.0,2.0,95,0.00,,,0.00,0,HR-IXPWINDi_r2_v1.2.,2013-10-19 08:30:00,
2013-10-19 04:35:00,50.6,49.2,29.94,WSW,252,0.0,2.0,95,0.00,,,0.00,0,HR-IXPWINDi_r2_v1.2.,2013-10-19 08:35:00,
2013-10-19 04:40:00,50.7,49.3,29.94,WSW,252,0.0,3.0,95,0.00,,,0.00,0,HR-IXPWINDi_r2_v1.2.,2013-10-19 08:40:00,
2013-10-19 04:45:00,50.5,49.1,29.94,WSW,252,0.0,3.0,95,0.00,,,0.00,0,HR-IXPWINDi_r2_v1.2.,2013-10-19 08:45:00,
2013-10-19 04:50:00,50.6,49.2,29.94,WSW,252,0.0,1.0,95,0.00,,,0.00,0,HR-IXPWINDi_r2_v1.2.,2013-10-19 08:50:00,
2013-10-19 04:56:00,50.5,49.1,29.93,WSW,252,0.0,1.0,95,0.00,,,0.00,0,HR-IXPWINDi_r2_v1.2.,2013-10-19 08:56:00,
2013-10-19 05:01:00,50.6,49.2,29.93,WSW,252,0.0,3.0,95,0.00,,,0.00,0,HR-IXPWINDi_r2_v1.2.,2013-10-19 09:01:00,
2013-10-19 05:06:00,50.7,49.3,29.93,WSW,252,0.0,3.0,95,0.00,,,0.00,0,HR-IXPWINDi_r2_v1.2.,2013-10-19 09:06:00,
2013-10-19 05:11:00,50.8,49.4,29.93,WSW,252,0.0,0.0,95,0.00,,,0.00,0,HR-IXPWINDi_r2_v1.2.,2013-10-19 09:11:00,
2013-10-19 05:17:00,50.8,49.4,29.92,WSW,252,0.0,1.0,95,0.00,,,0.00,0,HR-IXPWINDi_r2_v1.2.,2013-10-19 09:17:00,
2013-10-19 05:22:00,50.7,49.3,29.92,WSW,252,0.0,1.0,95,0.00,,,0.00,0,HR-IXPWINDi_r2_v1.2.,2013-10-19 09:22:00,
2013-10-19 05:27:00,50.8,49.4,29.93,WSW,252,0.0,0.0,95,0.00,,,0.00,0,HR-IXPWINDi_r2_v1.2.,2013-10-19 09:27:00,
2013-10-19 05:32:00,50.6,49.2,29.93,WSW,252,0.0,0.0,95,0.00,,,0.00,0,HR-IXPWINDi_r2_v1.2.,2013-10-19 09:32:00,
2013-10-19 05:37:00,50.6,49.2,29.93,WSW,252,0.0,0.0,95,0.00,,,0.00,0,HR-IXPWINDi_r2_v1.2.,2013-10-19 09:37:00,
2013-10-19 05:43:00,50.7,49.3,29.93,NNW,327,0.0,4.0,95,0.00,,,0.00,0,HR-IXPWINDi_r2_v1.2.,2013-10-19 09:43:00,
2013-10-19 05:48:00,50.8,49.4,29.93,NW,326,0.0,4.0,95,0.00,,,0.00,0,HR-IXPWINDi_r2_v1.2.,2013-10-19 09:48:00,
2013-10-19 05:53:00,50.8,49.4,29.92,NNW,327,0.0,1.0,95,0.00,,,0.00,0,HR-IXPWINDi_r2_v1.2.,2013-10-19 09:53:00,
2013-10-19 05:58:00,50.9,49.5,29.92,NNW,327,0.0,1.0,95,0.00,,,0.00,0,HR-IXPWINDi_r2_v1.2.,2013-10-19 09:58:00,
2013-10-19 06:03:00,50.9,49.5,29.92,NNW,327,0.0,1.0,95,0.00,,,0.00,0,HR-IXPWINDi_r2_v1.2.,2013-10-19 10:03:00,
2013-10-19 06:09:00,50.8,49.4,29.92,NNW,327,0.0,1.0,95,0.00,,,0.00,0,HR-IXPWINDi_r2_v1.2.,2013-10-19 10:09:00,
2013-10-19 06:14:00,50.8,49.4,29.92,NNW,327,0.0,0.0,95,0.00,,,0.00,0,HR-IXPWINDi_r2_v1.2.,2013-10-19 10:14:00,
2013-10-19 06:19:00,50.9,49.5,29.92,NNW,327,0.0,0.0,95,0.00,,,0.00,0,HR-IXPWINDi_r2_v1.2.,2013-10-19 10:19:00,
2013-10-19 06:24:00,50.9,49.5,29.92,NNW,327,0.0,2.0,95,0.00,,,0.00,0,HR-IXPWINDi_r2_v1.2.,2013-10-19 10:24:00,
2013-10-19 06:29:00,50.8,49.4,29.93,WNW,298,0.0,2.0,95,0.00,,,0.00,0,HR-IXPWINDi_r2_v1.2.,2013-10-19 10:29:00,
2013-10-19 06:34:00,50.8,49.4,29.93,WNW,298,0.0,2.0,95,0.00,,,0.00,0,HR-IXPWINDi_r2_v1.2.,2013-10-19 10:34:00,
2013-10-19 06:39:00,50.7,49.3,29.93,WNW,285,0.0,2.0,95,0.00,,,0.00,0,HR-IXPWINDi_r2_v1.2.,2013-10-19 10:39:00,
2013-10-19 06:45:00,50.6,49.2,29.94,WNW,285,0.0,2.0,95,0.00,,,0.00,0,HR-IXPWINDi_r2_v1.2.,2013-10-19 10:45:00,
2013-10-19 06:50:00,50.7,49.3,29.94,WNW,285,0.0,1.0,95,0.00,,,0.00,0,HR-IXPWINDi_r2_v1.2.,2013-10-19 10:50:00,
2013-10-19 06:55:00,50.6,49.2,29.95,WSW,238,0.0,3.0,95,0.00,,,0.00,0,HR-IXPWINDi_r2_v1.2.,2013-10-19 10:55:00,
2013-10-19 07:00:00,50.6,49.4,29.94,WSW,238,0.0,3.0,96,0.00,,,0.00,0,HR-IXPWINDi_r2_v1.2.,2013-10-19 11:00:00,
2013-10-19 07:05:00,50.6,49.4,29.94,WNW,289,2.0,3.0,96,0.00,,,0.00,0,HR-IXPWINDi_r2_v1.2.,2013-10-19 11:05:00,
2013-10-19 07:11:00,50.6,49.4,29.94,NNW,339,2.0,4.0,96,0.00,,,0.00,0,HR-IXPWINDi_r2_v1.2.,2013-10-19 11:11:00,
2013-10-19 07:16:00,50.6,49.4,29.93,NNW,344,1.0,4.0,96,0.00,,,0.00,0,HR-IXPWINDi_r2_v1.2.,2013-10-19 11:16:00,
2013-10-19 07:21:00,50.7,49.5,29.93,NNW,344,0.0,3.0,96,0.00,,,0.00,0,HR-IXPWINDi_r2_v1.2.,2013-10-19 11:21:00,
2013-10-19 07:26:00,50.8,49.6,29.92,NNW,344,0.0,2.0,96,0.00,,,0.00,0,HR-IXPWINDi_r2_v1.2.,2013-10-19 11:26:00,
2013-10-19 07:31:00,50.9,49.7,29.92,NNW,344,0.0,1.0,96,0.00,,,0.00,0,HR-IXPWINDi_r2_v1.2.,2013-10-19 11:31:00,
2013-10-19 07:37:00,50.8,49.6,29.92,NNW,344,0.0,0.0,96,0.00,,,0.00,0,HR-IXPWINDi_r2_v1.2.,2013-10-19 11:37:00,
2013-10-19 07:42:00,50.8,49.6,29.92,NNW,344,0.0,0.0,96,0.00,,,0.00,0,HR-IXPWINDi_r2_v1.2.,2013-10-19 11:42:00,
2013-10-19 07:47:00,50.7,49.5,29.92,ESE,112,0.0,4.0,96,0.00,,,0.00,0,HR-IXPWINDi_r2_v1.2.,2013-10-19 11:47:00,
2013-10-19 07:52:00,50.6,49.4,29.93,ESE,112,0.0,4.0,96,0.00,,,0.00,0,HR-IXPWINDi_r2_v1.2.,2013-10-19 11:52:00,
2013-10-19 07:57:00,50.6,49.4,29.94,SSE,163,0.0,4.0,96,0.00,,,0.00,5,HR-IXPWINDi_r2_v1.2.,2013-10-19 11:57:00,
2013-10-19 08:02:00,50.8,49.6,29.93,SSE,163,0.0,4.0,96,0.00,,,0.00,0,HR-IXPWINDi_r2_v1.2.,2013-10-19 12:02:00,
2013-10-19 08:07:00,50.8,49.6,29.93,SSE,163,0.0,2.0,96,0.00,,,0.00,12,HR-IXPWINDi_r2_v1.2.,2013-10-19 12:07:00,
2013-10-19 08:12:00,50.8,49.6,29.93,SSE,163,0.0,1.0,96,0.00,,,0.00,14,HR-IXPWINDi_r2_v1.2.,2013-10-19 12:12:00,
2013-10-19 08:18:00,50.8,49.6,29.93,SSE,163,0.0,1.0,96,0.00,,,0.00,18,HR-IXPWINDi_r2_v1.2.,2013-10-19 12:18:00,
2013-10-19 08:23:00,51.0,49.8,29.93,SSE,163,0.0,0.0,96,0.00,,,0.00,16,HR-IXPWINDi_r2_v1.2.,2013-10-19 12:23:00,
2013-10-19 08:28:00,50.9,49.7,29.93,SSE,163,0.0,0.0,96,0.00,,,0.00,25,HR-IXPWINDi_r2_v1.2.,2013-10-19 12:28:00,
2013-10-19 08:33:00,51.0,49.8,29.93,SSE,163,0.0,0.0,96,0.00,,,0.00,44,HR-IXPWINDi_r2_v1.2.,2013-10-19 12:33:00,
2013-10-19 08:38:00,51.2,50.0,29.93,SSE,163,0.0,2.0,96,0.00,,,0.00,65,HR-IXPWINDi_r2_v1.2.,2013-10-19 12:38:00,
2013-10-19 08:43:00,51.4,50.2,29.93,SSE,163,0.0,2.0,96,0.00,,,0.00,47,HR-IXPWINDi_r2_v1.2.,2013-10-19 12:43:00,
2013-10-19 08:48:00,51.4,50.2,29.93,SSE,163,0.0,1.0,96,0.00,,,0.00,32,HR-IXPWINDi_r2_v1.2.,2013-10-19 12:48:00,
2013-10-19 08:53:00,51.7,50.5,29.94,SSE,163,0.0,1.0,96,0.00,,,0.00,25,HR-IXPWINDi_r2_v1.2.,2013-10-19 12:53:00,
2013-10-19 08:59:00,51.8,50.3,29.94,SSE,163,0.0,0.0,95,0.00,,,0.00,25,HR-IXPWINDi_r2_v1.2.,2013-10-19 12:59:00,
2013-10-19 09:04:00,52.0,50.5,29.94,SSE,163,0.0,0.0,95,0.00,,,0.00,39,HR-IXPWINDi_r2_v1.2.,2013-10-19 13:04:00,
2013-10-19 09:09:00,52.2,50.7,29.94,SSE,163,0.0,0.0,95,0.00,,,0.00,33,HR-IXPWINDi_r2_v1.2.,2013-10-19 13:09:00,
2013-10-19 09:14:00,52.1,50.6,29.94,SSE,163,0.0,1.0,95,0.00,,,0.00,28,HR-IXPWINDi_r2_v1.2.,2013-10-19 13:14:00,
2013-10-19 09:20:00,52.1,50.6,29.95,SSE,163,0.0,1.0,95,0.00,,,0.00,30,HR-IXPWINDi_r2_v1.2.,2013-10-19 13:20:00,
2013-10-19 09:25:00,52.4,50.7,29.94,SSE,163,0.0,0.0,94,0.00,,,0.00,40,HR-IXPWINDi_r2_v1.2.,2013-10-19 13:25:00,
2013-10-19 09:30:00,52.7,51.0,29.93,SSE,163,0.0,1.0,94,0.00,,,0.00,51,HR-IXPWINDi_r2_v1.2.,2013-10-19 13:30:00,
2013-10-19 09:35:00,52.7,51.0,29.93,SSE,163,0.0,1.0,94,0.00,,,0.00,67,HR-IXPWINDi_r2_v1.2.,2013-10-19 13:35:00,
2013-10-19 09:40:00,52.8,51.1,29.93,SSE,163,0.0,1.0,94,0.00,,,0.00,69,HR-IXPWINDi_r2_v1.2.,2013-10-19 13:40:00,
2013-10-19 09:45:00,53.0,51.3,29.93,SSE,163,0.0,1.0,94,0.00,,,0.00,58,HR-IXPWINDi_r2_v1.2.,2013-10-19 13:45:00,
2013-10-19 09:50:00,53.2,51.5,29.93,SSE,163,0.0,1.0,94,0.00,,,0.00,70,HR-IXPWINDi_r2_v1.2.,2013-10-19 13:50:00,
2013-10-19 09:55:00,53.5,51.7,29.92,SSE,163,0.0,1.0,94,0.00,,,0.00,76,HR-IXPWINDi_r2_v1.2.,2013-10-19 13:55:00,
2013-10-19 10:01:00,53.7,51.9,29.91,SSE,163,0.0,1.0,94,0.00,,,0.00,144,HR-IXPWINDi_r2_v1.2.,2013-10-19 14:01:00,
2013-10-19 10:06:00,53.9,51.9,29.92,SSE,163,0.0,4.0,93,0.00,,,0.00,72,HR-IXPWINDi_r2_v1.2.,2013-10-19 14:06:00,
2013-10-19 10:11:00,54.0,52.0,29.92,SSE,163,0.0,4.0,93,0.00,,,0.00,86,HR-IXPWINDi_r2_v1.2.,2013-10-19 14:11:00,
2013-10-19 10:16:00,54.1,52.1,29.92,SSE,163,0.0,2.0,93,0.00,,,0.00,88,HR-IXPWINDi_r2_v1.2.,2013-10-19 14:16:00,
2013-10-19 10:21:00,54.4,52.1,29.93,SSE,163,0.0,1.0,92,0.00,,,0.00,47,HR-IXPWINDi_r2_v1.2.,2013-10-19 14:21:00,
2013-10-19 10:27:00,54.6,52.3,29.93,SSE,163,0.0,1.0,92,0.00,,,0.00,49,HR-IXPWINDi_r2_v1.2.,2013-10-19 14:27:00,
2013-10-19 10:32:00,54.6,52.3,29.93,SSE,163,0.0,4.0,92,0.00,,,0.00,77,HR-IXPWINDi_r2_v1.2.,2013-10-19 14:32:00,
2013-10-19 10:37:00,54.7,52.4,29.92,SSE,163,0.0,4.0,92,0.00,,,0.00,155,HR-IXPWINDi_r2_v1.2.,2013-10-19 14:37:00,
2013-10-19 10:43:00,54.9,52.6,29.92,SSE,163,0.0,1.0,92,0.00,,,0.00,120,HR-IXPWINDi_r2_v1.2.,2013-10-19 14:43:00,
2013-10-19 10:48:00,55.1,52.8,29.92,SSE,163,0.0,1.0,92,0.00,,,0.00,100,HR-IXPWINDi_r2_v1.2.,2013-10-19 14:48:00,
2013-10-19 10:53:00,55.3,52.7,29.92,SSE,163,0.0,0.0,91,0.00,,,0.00,116,HR-IXPWINDi_r2_v1.2.,2013-10-19 14:53:00,
2013-10-19 10:58:00,55.5,52.8,29.92,SSE,163,0.0,0.0,91,0.00,,,0.00,128,HR-IXPWINDi_r2_v1.2.,2013-10-19 14:58:00,
2013-10-19 11:03:00,56.0,53.0,29.92,SSE,163,0.0,0.0,90,0.00,,,0.00,174,HR-IXPWINDi_r2_v1.2.,2013-10-19 15:03:00,
2013-10-19 11:08:00,56.6,53.6,29.92,SSE,163,0.0,0.0,90,0.00,,,0.00,236,HR-IXPWINDi_r2_v1.2.,2013-10-19 15:08:00,
2013-10-19 11:13:00,56.5,53.5,29.92,SSE,163,2.0,4.0,90,0.00,,,0.00,158,HR-IXPWINDi_r2_v1.2.,2013-10-19 15:13:00,
2013-10-19 11:19:00,56.4,53.1,29.92,SSE,163,0.0,4.0,89,0.00,,,0.00,148,HR-IXPWINDi_r2_v1.2.,2013-10-19 15:19:00,
2013-10-19 11:24:00,56.6,53.0,29.92,SSE,163,0.0,2.0,88,0.00,,,0.00,156,HR-IXPWINDi_r2_v1.2.,2013-10-19 15:24:00,
2013-10-19 11:29:00,57.4,53.8,29.92,SSE,163,0.0,1.0,88,0.00,,,0.00,153,HR-IXPWINDi_r2_v1.2.,2013-10-19 15:29:00,
2013-10-19 11:34:00,57.5,53.0,29.92,SSE,163,0.0,0.0,85,0.00,,,0.00,169,HR-IXPWINDi_r2_v1.2.,2013-10-19 15:34:00,
2013-10-19 11:40:00,57.6,53.4,29.91,SSE,163,0.0,0.0,86,0.00,,,0.00,174,HR-IXPWINDi_r2_v1.2.,2013-10-19 15:40:00,
2013-10-19 11:45:00,57.8,53.6,29.91,SSE,163,0.0,1.0,86,0.00,,,0.00,163,HR-IXPWINDi_r2_v1.2.,2013-10-19 15:45:00,
2013-10-19 11:50:00,58.0,53.5,29.92,SSE,163,0.0,1.0,85,0.00,,,0.00,192,HR-IXPWINDi_r2_v1.2.,2013-10-19 15:50:00,
2013-10-19 11:55:00,58.2,53.6,29.91,SSE,163,0.0,5.0,85,0.00,,,0.00,193,HR-IXPWINDi_r2_v1.2.,2013-10-19 15:55:00,
2013-10-19 12:01:00,58.2,53.6,29.91,SSE,164,0.0,5.0,85,0.00,,,0.00,200,HR-IXPWINDi_r2_v1.2.,2013-10-19 16:01:00,
2013-10-19 12:06:00,58.7,54.1,29.91,SSE,164,0.0,5.0,85,0.00,,,0.00,241,HR-IXPWINDi_r2_v1.2.,2013-10-19 16:06:00,
2013-10-19 12:11:00,58.7,53.5,29.91,South,184,2.0,5.0,83,0.00,,,0.00,185,HR-IXPWINDi_r2_v1.2.,2013-10-19 16:11:00,
2013-10-19 12:16:00,59.0,54.1,29.91,South,179,2.0,5.0,84,0.00,,,0.00,144,HR-IXPWINDi_r2_v1.2.,2013-10-19 16:16:00,
2013-10-19 12:21:00,59.1,53.9,29.91,South,179,1.0,4.0,83,0.00,,,0.00,118,HR-IXPWINDi_r2_v1.2.,2013-10-19 16:21:00,
2013-10-19 12:27:00,59.2,54.0,29.90,South,179,0.0,4.0,83,0.00,,,0.00,111,HR-IXPWINDi_r2_v1.2.,2013-10-19 16:27:00,
2013-10-19 12:32:00,59.4,54.8,29.90,South,179,0.0,2.0,85,0.00,,,0.00,155,HR-IXPWINDi_r2_v1.2.,2013-10-19 16:32:00,
2013-10-19 12:37:00,60.2,54.6,29.90,South,179,0.0,1.0,82,0.00,,,0.00,155,HR-IXPWINDi_r2_v1.2.,2013-10-19 16:37:00,
2013-10-19 12:42:00,60.1,54.9,29.90,SSW,202,0.0,2.0,83,0.00,,,0.00,139,HR-IXPWINDi_r2_v1.2.,2013-10-19 16:42:00,
2013-10-19 12:47:00,60.0,54.4,29.89,West,266,0.0,3.0,82,0.00,,,0.00,130,HR-IXPWINDi_r2_v1.2.,2013-10-19 16:47:00,
2013-10-19 12:52:00,60.0,54.4,29.90,West,266,0.0,3.0,82,0.00,,,0.00,144,HR-IXPWINDi_r2_v1.2.,2013-10-19 16:52:00,
2013-10-19 12:57:00,59.9,54.7,29.89,West,266,0.0,1.0,83,0.00,,,0.00,121,HR-IXPWINDi_r2_v1.2.,2013-10-19 16:57:00,
2013-10-19 13:03:00,59.6,54.0,29.90,SSW,207,0.0,4.0,82,0.00,,,0.00,107,HR-IXPWINDi_r2_v1.2.,2013-10-19 17:03:00,
2013-10-19 13:08:00,60.0,54.4,29.89,SSW,207,0.0,4.0,82,0.00,,,0.00,91,HR-IXPWINDi_r2_v1.2.,2013-10-19 17:08:00,
2013-10-19 13:13:00,59.9,54.3,29.88,SSW,207,0.0,0.0,82,0.00,,,0.00,116,HR-IXPWINDi_r2_v1.2.,2013-10-19 17:13:00,
2013-10-19 13:18:00,59.9,54.7,29.88,SSW,207,0.0,1.0,83,0.00,,,0.00,109,HR-IXPWINDi_r2_v1.2.,2013-10-19 17:18:00,
2013-10-19 13:24:00,59.7,53.8,29.88,SSW,192,2.0,3.0,81,0.00,,,0.00,111,HR-IXPWINDi_r2_v1.2.,2013-10-19 17:24:00,
2013-10-19 13:29:00,59.9,54.3,29.90,SSW,193,4.0,4.0,82,0.00,,,0.00,116,HR-IXPWINDi_r2_v1.2.,2013-10-19 17:29:00,
2013-10-19 13:34:00,60.1,54.9,29.88,SSE,165,0.0,5.0,83,0.00,,,0.00,146,HR-IXPWINDi_r2_v1.2.,2013-10-19 17:34:00,
2013-10-19 13:39:00,60.1,54.5,29.88,South,178,1.0,5.0,82,0.00,,,0.00,190,HR-IXPWINDi_r2_v1.2.,2013-10-19 17:39:00,
2013-10-19 13:45:00,60.4,54.8,29.90,SSW,210,4.0,6.0,82,0.00,,,0.00,304,HR-IXPWINDi_r2_v1.2.,2013-10-19 17:45:00,
2013-10-19 13:50:00,61.0,55.1,29.90,SSW,207,3.0,6.0,81,0.00,,,0.00,320,HR-IXPWINDi_r2_v1.2.,2013-10-19 17:50:00,
2013-10-19 13:55:00,61.7,55.7,29.89,North,5,3.0,6.0,81,0.00,,,0.00,183,HR-IXPWINDi_r2_v1.2.,2013-10-19 17:55:00,
2013-10-19 14:00:00,61.3,54.7,29.86,East,79,2.0,5.0,79,0.00,,,0.00,146,HR-IXPWINDi_r2_v1.2.,2013-10-19 18:00:00,
2013-10-19 14:05:00,60.7,54.4,29.87,SSE,154,1.0,5.0,80,0.00,,,0.00,139,HR-IXPWINDi_r2_v1.2.,2013-10-19 18:05:00,
2013-10-19 14:11:00,60.5,53.2,29.86,SSE,155,4.0,5.0,77,0.00,,,0.00,172,HR-IXPWINDi_r2_v1.2.,2013-10-19 18:11:00,
2013-10-19 14:16:00,60.7,54.4,29.87,South,177,4.0,5.0,80,0.00,,,0.00,163,HR-IXPWINDi_r2_v1.2.,2013-10-19 18:16:00,
2013-10-19 14:21:00,60.9,54.6,29.87,South,179,0.0,5.0,80,0.00,,,0.00,137,HR-IXPWINDi_r2_v1.2.,2013-10-19 18:21:00,
2013-10-19 14:27:00,60.8,53.8,29.87,South,179,0.0,5.0,78,0.00,,,0.00,169,HR-IXPWINDi_r2_v1.2.,2013-10-19 18:27:00,
2013-10-19 14:32:00,61.0,54.4,29.88,SSW,192,2.0,6.0,79,0.00,,,0.00,111,HR-IXPWINDi_r2_v1.2.,2013-10-19 18:32:00,
2013-10-19 14:37:00,60.8,53.5,29.88,SSW,197,0.0,7.0,77,0.00,,,0.00,84,HR-IXPWINDi_r2_v1.2.,2013-10-19 18:37:00,
2013-10-19 14:42:00,60.6,53.3,29.88,SSW,196,0.0,7.0,77,0.00,,,0.00,97,HR-IXPWINDi_r2_v1.2.,2013-10-19 18:42:00,
2013-10-19 14:47:00,60.4,53.4,29.88,SSW,200,0.0,7.0,78,0.00,,,0.00,102,HR-IXPWINDi_r2_v1.2.,2013-10-19 18:47:00,
2013-10-19 14:52:00,60.3,53.3,29.88,SSW,201,1.0,7.0,78,0.00,,,0.00,163,HR-IXPWINDi_r2_v1.2.,2013-10-19 18:52:00,
2013-10-19 14:57:00,60.5,54.2,29.88,SSW,201,0.0,5.0,80,0.00,,,0.00,336,HR-IXPWINDi_r2_v1.2.,2013-10-19 18:57:00,
2013-10-19 15:02:00,61.3,55.0,29.88,SSW,201,0.0,5.0,80,0.00,,,0.00,258,HR-IXPWINDi_r2_v1.2.,2013-10-19 19:02:00,
2013-10-19 15:08:00,61.4,53.0,29.89,SSW,198,1.0,3.0,74,0.00,,,0.00,206,HR-IXPWINDi_r2_v1.2.,2013-10-19 19:08:00,
2013-10-19 15:13:00,60.7,52.3,29.89,SSW,202,2.0,4.0,74,0.00,,,0.00,141,HR-IXPWINDi_r2_v1.2.,2013-10-19 19:13:00,
2013-10-19 15:18:00,60.6,52.2,29.89,SSW,202,2.0,4.0,74,0.00,,,0.00,176,HR-IXPWINDi_r2_v1.2.,2013-10-19 19:18:00,
2013-10-19 15:23:00,60.8,52.8,29.89,SSW,196,0.0,3.0,75,0.00,,,0.00,207,HR-IXPWINDi_r2_v1.2.,2013-10-19 19:23:00,
2013-10-19 15:29:00,61.1,53.1,29.89,SSW,196,0.0,5.0,75,0.00,,,0.00,206,HR-IXPWINDi_r2_v1.2.,2013-10-19 19:29:00,
2013-10-19 15:34:00,61.4,53.7,29.88,West,281,0.0,5.0,76,0.00,,,0.00,199,HR-IXPWINDi_r2_v1.2.,2013-10-19 19:34:00,
2013-10-19 15:39:00,61.3,53.2,29.89,North,355,3.0,5.0,75,0.00,,,0.00,160,HR-IXPWINDi_r2_v1.2.,2013-10-19 19:39:00,
2013-10-19 15:44:00,61.2,50.5,29.89,SSW,196,4.0,5.0,68,0.00,,,0.00,200,HR-IXPWINDi_r2_v1.2.,2013-10-19 19:44:00,
2013-10-19 15:49:00,61.2,50.9,29.89,SW,216,0.0,5.0,69,0.00,,,0.00,176,HR-IXPWINDi_r2_v1.2.,2013-10-19 19:49:00,
2013-10-19 15:55:00,61.3,50.6,29.88,NNW,343,0.0,6.0,68,0.00,,,0.00,158,HR-IXPWINDi_r2_v1.2.,2013-10-19 19:55:00,
2013-10-19 16:00:00,61.3,51.4,29.88,NNW,333,0.0,6.0,70,0.00,,,0.00,179,HR-IXPWINDi_r2_v1.2.,2013-10-19 20:00:00,
2013-10-19 16:05:00,61.7,51.0,29.88,NW,321,0.0,7.0,68,0.00,,,0.00,234,HR-IXPWINDi_r2_v1.2.,2013-10-19 20:05:00,
2013-10-19 16:10:00,61.5,49.6,29.89,NE,34,1.0,7.0,65,0.00,,,0.00,186,HR-IXPWINDi_r2_v1.2.,2013-10-19 20:10:00,
2013-10-19 16:15:00,61.6,49.7,29.89,NE,34,1.0,7.0,65,0.00,,,0.00,181,HR-IXPWINDi_r2_v1.2.,2013-10-19 20:15:00,
2013-10-19 16:21:00,61.8,49.4,29.89,NE,44,0.0,2.0,64,0.00,,,0.00,178,HR-IXPWINDi_r2_v1.2.,2013-10-19 20:21:00,
2013-10-19 16:26:00,61.2,49.3,29.89,SSE,162,5.0,5.0,65,0.00,,,0.00,165,HR-IXPWINDi_r2_v1.2.,2013-10-19 20:26:00,
2013-10-19 16:31:00,60.9,49.0,29.89,NNW,344,2.0,7.0,65,0.00,,,0.00,246,HR-IXPWINDi_r2_v1.2.,2013-10-19 20:31:00,
2013-10-19 16:36:00,61.0,48.7,29.89,NNW,344,5.0,8.0,64,0.00,,,0.00,167,HR-IXPWINDi_r2_v1.2.,2013-10-19 20:36:00,
2013-10-19 16:41:00,60.8,48.9,29.89,NNW,329,0.0,8.0,65,0.00,,,0.00,232,HR-IXPWINDi_r2_v1.2.,2013-10-19 20:41:00,
2013-10-19 16:46:00,61.1,49.6,29.89,NNW,342,2.0,8.0,66,0.00,,,0.00,139,HR-IXPWINDi_r2_v1.2.,2013-10-19 20:46:00,
2013-10-19 16:52:00,61.2,48.5,29.89,NW,306,0.0,8.0,63,0.00,,,0.00,113,HR-IXPWINDi_r2_v1.2.,2013-10-19 20:52:00,
2013-10-19 16:57:00,61.0,49.5,29.89,NW,317,0.0,6.0,66,0.00,,,0.00,118,HR-IXPWINDi_r2_v1.2.,2013-10-19 20:57:00,
2013-10-19 17:02:00,61.0,48.7,29.90,NW,313,5.0,7.0,64,0.00,,,0.00,290,HR-IXPWINDi_r2_v1.2.,2013-10-19 21:02:00,
2013-10-19 17:07:00,60.9,47.7,29.90,NNE,24,8.0,13.0,62,0.00,,,0.00,111,HR-IXPWINDi_r2_v1.2.,2013-10-19 21:07:00,
2013-10-19 17:12:00,60.8,47.6,29.90,North,350,0.0,13.0,62,0.00,,,0.00,84,HR-IXPWINDi_r2_v1.2.,2013-10-19 21:12:00,
2013-10-19 17:17:00,61.1,48.4,29.90,NNE,24,7.0,13.0,63,0.00,,,0.00,77,HR-IXPWINDi_r2_v1.2.,2013-10-19 21:17:00,
2013-10-19 17:22:00,60.9,48.2,29.90,NNW,345,5.0,15.0,63,0.00,,,0.00,63,HR-IXPWINDi_r2_v1.2.,2013-10-19 21:22:00,
2013-10-19 17:27:00,60.7,48.4,29.91,NNW,340,3.0,15.0,64,0.00,,,0.00,54,HR-IXPWINDi_r2_v1.2.,2013-10-19 21:27:00,
2013-10-19 17:32:00,60.4,47.7,29.91,WSW,252,1.0,16.0,63,0.00,,,0.00,32,HR-IXPWINDi_r2_v1.2.,2013-10-19 21:32:00,
2013-10-19 17:38:00,60.1,47.0,29.91,NNE,23,1.0,16.0,62,0.00,,,0.00,30,HR-IXPWINDi_r2_v1.2.,2013-10-19 21:38:00,
2013-10-19 17:43:00,59.8,46.3,29.91,NNW,337,0.0,13.0,61,0.00,,,0.00,28,HR-IXPWINDi_r2_v1.2.,2013-10-19 21:43:00,
2013-10-19 17:48:00,59.7,46.2,29.91,SE,139,1.0,9.0,61,0.00,,,0.00,26,HR-IXPWINDi_r2_v1.2.,2013-10-19 21:48:00,
2013-10-19 17:53:00,59.6,46.5,29.91,North,5,2.0,8.0,62,0.00,,,0.00,25,HR-IXPWINDi_r2_v1.2.,2013-10-19 21:53:00,
2013-10-19 17:58:00,59.8,46.3,29.90,SSW,199,2.0,5.0,61,0.00,,,0.00,23,HR-IXPWINDi_r2_v1.2.,2013-10-19 21:58:00,
2013-10-19 18:03:00,59.4,46.3,29.91,North,11,2.0,8.0,62,0.00,,,0.00,21,HR-IXPWINDi_r2_v1.2.,2013-10-19 22:03:00,
2013-10-19 18:09:00,58.9,46.7,29.91,NNW,327,3.0,8.0,64,0.00,,,0.00,19,HR-IXPWINDi_r2_v1.2.,2013-10-19 22:09:00,
2013-10-19 18:14:00,58.7,46.1,29.91,ENE,67,4.0,9.0,63,0.00,,,0.00,18,HR-IXPWINDi_r2_v1.2.,2013-10-19 22:14:00,
2013-10-19 18:19:00,58.4,47.0,29.91,NNW,336,5.0,9.0,66,0.00,,,0.00,16,HR-IXPWINDi_r2_v1.2.,2013-10-19 22:19:00,
2013-10-19 18:24:00,58.1,46.7,29.92,NNE,12,6.0,9.0,66,0.00,,,0.00,16,HR-IXPWINDi_r2_v1.2.,2013-10-19 22:24:00,
2013-10-19 18:30:00,58.0,46.7,29.92,NNE,15,0.0,9.0,66,0.00,,,0.00,12,HR-IXPWINDi_r2_v1.2.,2013-10-19 22:30:00,
2013-10-19 18:35:00,57.7,46.8,29.91,North,5,4.0,10.0,67,0.00,,,0.00,9,HR-IXPWINDi_r2_v1.2.,2013-10-19 22:35:00,
2013-10-19 18:40:00,57.5,47.0,29.92,North,355,2.0,10.0,68,0.00,,,0.00,7,HR-IXPWINDi_r2_v1.2.,2013-10-19 22:40:00,
2013-10-19 18:45:00,57.0,47.3,29.92,ENE,59,1.0,5.0,70,0.00,,,0.00,5,HR-IXPWINDi_r2_v1.2.,2013-10-19 22:45:00,
2013-10-19 18:50:00,56.7,47.7,29.92,NNW,348,0.0,7.0,72,0.00,,,0.00,0,HR-IXPWINDi_r2_v1.2.,2013-10-19 22:50:00,
2013-10-19 18:55:00,56.3,47.3,29.92,NNW,344,4.0,8.0,72,0.00,,,0.00,0,HR-IXPWINDi_r2_v1.2.,2013-10-19 22:55:00,
2013-10-19 19:00:00,56.5,47.2,29.92,North,11,1.0,10.0,71,0.00,,,0.00,0,HR-IXPWINDi_r2_v1.2.,2013-10-19 23:00:00,
2013-10-19 19:05:00,56.5,47.5,29.92,North,5,3.0,10.0,72,0.00,,,0.00,0,HR-IXPWINDi_r2_v1.2.,2013-10-19 23:05:00,
2013-10-19 19:11:00,56.3,47.7,29.93,North,350,0.0,6.0,73,0.00,,,0.00,0,HR-IXPWINDi_r2_v1.2.,2013-10-19 23:11:00,
2013-10-19 19:16:00,56.0,47.4,29.93,North,349,1.0,6.0,73,0.00,,,0.00,0,HR-IXPWINDi_r2_v1.2.,2013-10-19 23:16:00,
2013-10-19 19:22:00,55.2,47.7,29.93,North,349,0.0,6.0,76,0.00,,,0.00,0,HR-IXPWINDi_r2_v1.2.,2013-10-19 23:22:00,
2013-10-19 19:27:00,54.8,47.7,29.93,NNW,341,0.0,3.0,77,0.00,,,0.00,0,HR-IXPWINDi_r2_v1.2.,2013-10-19 23:27:00,
2013-10-19 19:32:00,54.7,47.6,29.93,NNE,19,4.0,5.0,77,0.00,,,0.00,0,HR-IXPWINDi_r2_v1.2.,2013-10-19 23:32:00,
2013-10-19 19:37:00,55.3,47.8,29.94,ESE,103,0.0,5.0,76,0.00,,,0.00,0,HR-IXPWINDi_r2_v1.2.,2013-10-19 23:37:00,
2013-10-19 19:42:00,55.0,47.9,29.93,North,355,3.0,7.0,77,0.00,,,0.00,0,HR-IXPWINDi_r2_v1.2.,2013-10-19 23:42:00,
2013-10-19 19:47:00,54.6,47.5,29.93,North,360,0.0,7.0,77,0.00,,,0.00,0,HR-IXPWINDi_r2_v1.2.,2013-10-19 23:47:00,
2013-10-19 19:52:00,54.0,47.6,29.93,North,360,0.0,3.0,79,0.00,,,0.00,0,HR-IXPWINDi_r2_v1.2.,2013-10-19 23:52:00,
2013-10-19 19:58:00,53.8,48.0,29.93,NNW,338,4.0,4.0,81,0.00,,,0.00,0,HR-IXPWINDi_r2_v1.2.,2013-10-19 23:58:00,
2013-10-19 20:03:00,54.4,48.3,29.94,North,355,1.0,4.0,80,0.00,,,0.00,0,HR-IXPWINDi_r2_v1.2.,2013-10-20 00:03:00,
2013-10-19 20:08:00,54.2,48.1,29.94,East,98,0.0,4.0,80,0.00,,,0.00,0,HR-IXPWINDi_r2_v1.2.,2013-10-20 00:08:00,
2013-10-19 20:13:00,53.5,48.1,29.94,East,91,0.0,4.0,82,0.00,,,0.00,0,HR-IXPWINDi_r2_v1.2.,2013-10-20 00:13:00,
2013-10-19 20:18:00,53.1,48.3,29.94,ENE,76,0.0,2.0,84,0.00,,,0.00,0,HR-IXPWINDi_r2_v1.2.,2013-10-20 00:18:00,
2013-10-19 20:23:00,53.8,48.4,29.94,North,5,9.0,9.0,82,0.00,,,0.00,0,HR-IXPWINDi_r2_v1.2.,2013-10-20 00:23:00,
2013-10-19 20:28:00,54.6,48.8,29.94,NW,313,0.0,9.0,81,0.00,,,0.00,0,HR-IXPWINDi_r2_v1.2.,2013-10-20 00:28:00,
2013-10-19 20:33:00,55.4,48.9,29.94,North,5,2.0,9.0,79,0.00,,,0.00,0,HR-IXPWINDi_r2_v1.2.,2013-10-20 00:33:00,
2013-10-19 20:39:00,55.7,48.9,29.94,NNW,340,1.0,7.0,78,0.00,,,0.00,0,HR-IXPWINDi_r2_v1.2.,2013-10-20 00:39:00,
2013-10-19 20:44:00,55.8,49.0,29.94,North,350,4.0,7.0,78,0.00,,,0.00,0,HR-IXPWINDi_r2_v1.2.,2013-10-20 00:44:00,
2013-10-19 20:49:00,55.7,48.9,29.94,NNW,329,4.0,7.0,78,0.00,,,0.00,0,HR-IXPWINDi_r2_v1.2.,2013-10-20 00:49:00,
2013-10-19 20:55:00,55.7,48.9,29.94,NNW,344,0.0,7.0,78,0.00,,,0.00,0,HR-IXPWINDi_r2_v1.2.,2013-10-20 00:55:00,
2013-10-19 21:00:00,55.4,48.9,29.94,NNW,338,3.0,6.0,79,0.00,,,0.00,0,HR-IXPWINDi_r2_v1.2.,2013-10-20 01:00:00,
2013-10-19 21:05:00,55.4,48.9,29.94,North,360,0.0,6.0,79,0.00,,,0.00,0,HR-IXPWINDi_r2_v1.2.,2013-10-20 01:05:00,
2013-10-19 21:10:00,55.1,49.0,29.94,North,360,0.0,6.0,80,0.00,,,0.00,0,HR-IXPWINDi_r2_v1.2.,2013-10-20 01:10:00,
2013-10-19 21:16:00,54.9,48.8,29.94,NNW,346,2.0,4.0,80,0.00,,,0.00,0,HR-IXPWINDi_r2_v1.2.,2013-10-20 01:16:00,
2013-10-19 21:21:00,54.6,48.8,29.95,NNW,344,1.0,4.0,81,0.00,,,0.00,0,HR-IXPWINDi_r2_v1.2.,2013-10-20 01:21:00,
2013-10-19 21:26:00,54.7,48.6,29.95,NNW,330,0.0,6.0,80,0.00,,,0.00,0,HR-IXPWINDi_r2_v1.2.,2013-10-20 01:26:00,
2013-10-19 21:31:00,54.1,48.7,29.95,NNW,330,0.0,6.0,82,0.00,,,0.00,0,HR-IXPWINDi_r2_v1.2.,2013-10-20 01:31:00,
2013-10-19 21:37:00,53.5,48.4,29.95,North,349,5.0,7.0,83,0.00,,,0.00,0,HR-IXPWINDi_r2_v1.2.,2013-10-20 01:37:00,
2013-10-19 21:42:00,53.7,48.3,29.95,North,5,0.0,7.0,82,0.00,,,0.00,0,HR-IXPWINDi_r2_v1.2.,2013-10-20 01:42:00,
2013-10-19 21:47:00,53.8,48.0,29.95,North,5,0.0,7.0,81,0.00,,,0.00,0,HR-IXPWINDi_r2_v1.2.,2013-10-20 01:47:00,
2013-10-19 21:53:00,53.6,47.9,29.95,NNW,344,5.0,9.0,81,0.00,,,0.00,0,HR-IXPWINDi_r2_v1.2.,2013-10-20 01:53:00,
2013-10-19 21:58:00,53.6,47.9,29.95,North,360,1.0,10.0,81,0.00,,,0.00,0,HR-IXPWINDi_r2_v1.2.,2013-10-20 01:58:00,
2013-10-19 22:03:00,53.5,47.8,29.95,North,9,0.0,10.0,81,0.00,,,0.00,0,HR-IXPWINDi_r2_v1.2.,2013-10-20 02:03:00,
2013-10-19 22:08:00,53.5,47.8,29.95,NW,313,5.0,9.0,81,0.00,,,0.00,0,HR-IXPWINDi_r2_v1.2.,2013-10-20 02:08:00,
2013-10-19 22:14:00,53.4,47.7,29.95,North,351,6.0,9.0,81,0.00,,,0.00,0,HR-IXPWINDi_r2_v1.2.,2013-10-20 02:14:00,
2013-10-19 22:19:00,53.3,47.2,29.96,NW,318,5.0,8.0,80,0.00,,,0.00,0,HR-IXPWINDi_r2_v1.2.,2013-10-20 02:19:00,
2013-10-19 22:24:00,53.3,47.2,29.96,NNW,338,8.0,11.0,80,0.00,,,0.00,0,HR-IXPWINDi_r2_v1.2.,2013-10-20 02:24:00,
2013-10-19 22:29:00,53.3,47.2,29.96,North,355,2.0,11.0,80,0.00,,,0.00,0,HR-IXPWINDi_r2_v1.2.,2013-10-20 02:29:00,
2013-10-19 22:34:00,53.2,47.1,29.96,NNW,342,2.0,10.0,80,0.00,,,0.00,0,HR-IXPWINDi_r2_v1.2.,2013-10-20 02:34:00,
2013-10-19 22:39:00,53.2,47.1,29.96,NNW,333,2.0,8.0,80,0.00,,,0.00,0,HR-IXPWINDi_r2_v1.2.,2013-10-20 02:39:00,
2013-10-19 22:45:00,52.9,46.8,29.96,NNW,334,3.0,8.0,80,0.00,,,0.00,0,HR-IXPWINDi_r2_v1.2.,2013-10-20 02:45:00,
2013-10-19 22:50:00,52.8,47.1,29.97,NNW,348,0.0,9.0,81,0.00,,,0.00,0,HR-IXPWINDi_r2_v1.2.,2013-10-20 02:50:00,
2013-10-19 22:55:00,52.6,46.9,29.97,North,351,3.0,9.0,81,0.00,,,0.00,0,HR-IXPWINDi_r2_v1.2.,2013-10-20 02:55:00,
2013-10-19 23:00:00,52.4,46.7,29.97,North,350,6.0,7.0,81,0.00,,,0.00,0,HR-IXPWINDi_r2_v1.2.,2013-10-20 03:00:00,
2013-10-19 23:05:00,52.4,46.7,29.97,NNW,338,3.0,10.0,81,0.00,,,0.00,0,HR-IXPWINDi_r2_v1.2.,2013-10-20 03:05:00,
2013-10-19 23:10:00,52.4,46.4,29.97,North,355,3.0,10.0,80,0.00,,,0.00,0,HR-IXPWINDi_r2_v1.2.,2013-10-20 03:10:00,
2013-10-19 23:15:00,52.1,46.4,29.97,NNW,340,0.0,7.0,81,0.00,,,0.00,0,HR-IXPWINDi_r2_v1.2.,2013-10-20 03:15:00,
2013-10-19 23:21:00,52.0,46.3,29.97,North,351,4.0,5.0,81,0.00,,,0.00,0,HR-IXPWINDi_r2_v1.2.,2013-10-20 03:21:00,
2013-10-19 23:26:00,52.0,46.3,29.97,NNW,337,0.0,7.0,81,0.00,,,0.00,0,HR-IXPWINDi_r2_v1.2.,2013-10-20 03:26:00,
2013-10-19 23:31:00,51.7,46.0,29.98,North,5,1.0,7.0,81,0.00,,,0.00,0,HR-IXPWINDi_r2_v1.2.,2013-10-20 03:31:00,
2013-10-19 23:36:00,51.3,45.6,29.98,North,5,0.0,4.0,81,0.00,,,0.00,0,HR-IXPWINDi_r2_v1.2.,2013-10-20 03:36:00,
2013-10-19 23:41:00,50.5,45.5,29.98,NNE,16,1.0,3.0,83,0.00,,,0.00,0,HR-IXPWINDi_r2_v1.2.,2013-10-20 03:41:00,
2013-10-19 23:46:00,50.1,45.4,29.98,NNE,21,0.0,3.0,84,0.00,,,0.00,0,HR-IXPWINDi_r2_v1.2.,2013-10-20 03:46:00,
2013-10-19 23:51:00,49.6,45.2,29.98,NNE,21,0.0,2.0,85,0.00,,,0.00,0,HR-IXPWINDi_r2_v1.2.,2013-10-20 03:51:00,
2013-10-19 23:56:00,49.2,45.1,29.98,NNE,21,0.0,1.0,86,0.00,,,0.00,0,HR-IXPWINDi_r2_v1.2.,2013-10-20 03:56:00,